Terminal Aerodrome Forecast
Issued by NWS Huntsville, AL

Home | Current Version | Previous Version | Text Only | Print | Product List | Glossary On
Versions: 1 2 3 4 5 6 7 8 9 10 11 12 13 14 15 16 17 18 19 20 21 22 23 24 25 26 27 28 29 30 31 32 33 34 35 36
000
FTUS44 KHUN 242325
TAFMSL
TAF
KMSL 242325Z 2500/2524 28005KT P6SM VCSH BKN040
     FM250700 27004KT P6SM SCT040 BKN120
     FM251500 27011KT P6SM BKN040
     FM251700 27002KT P6SM SCT050=

USA.gov is the U.S. government's official web portal to all federal, state and local government web resources and services.